F/V Chelsea Dawn — WAQ7956 — position and weather

sailwx.info

Track history (hours):
 
Tides and Currents Weather Stations Pressure Air Temp Water Temp Dewpoint Dewpoint Depression Visibility Wind Speed Wind Dir Waves Ship Positions

F/V Chelsea Dawn

Owner: YOUNG, MARK N, SITKA, AK. More information available from US FCC via Universal Licensing System and Coast Guard Vessel Documentation Center.

Last reported at 2017-Oct-20 00:59 UTC. Time now 2017-Oct-20 01:29 UTC.
Position N 47°39' W 122°23'.

Length 15 m.

Type: Fishing. MMSI: 367076240.

Date/timePositionNaut miles runAvg speedWind from/ knotsBaromVisibWave heightAir tempDewpointWater temp
2017-Oct-20 00:59N 47°39' W 122°23'0 0.0
2017-Oct-20 00:29N 47°39' W 122°23'0 0.0
2017-Oct-19 23:59N 47°39' W 122°23'0 0.0
2017-Oct-19 23:29N 47°39' W 122°23'0 0.0
2017-Oct-19 22:59N 47°39' W 122°23'0 0.0
2017-Oct-19 22:29N 47°39' W 122°23'0 0.0
2017-Oct-19 21:59N 47°39' W 122°23'0 0.0
2017-Oct-19 21:29N 47°39' W 122°23'0 0.1
2017-Oct-19 20:59N 47°39' W 122°23'0 0.1
2017-Oct-19 20:29N 47°39' W 122°23'0 0.0
2017-Oct-19 19:59N 47°39' W 122°23'0 0.0
2017-Oct-19 19:29N 47°39' W 122°23'0 0.1
2017-Oct-19 18:59N 47°39' W 122°23'0 0.1
2017-Oct-19 18:30N 47°39' W 122°23'0 0.1
2017-Oct-19 17:59N 47°39' W 122°23'0 0.1
2017-Oct-19 17:29N 47°39' W 122°23'0 0.0
2017-Oct-19 16:59N 47°39' W 122°23'0 0.0
2017-Oct-19 16:29N 47°39' W 122°23'0 0.0
2017-Oct-19 15:59N 47°39' W 122°23'0 0.0
2017-Oct-19 15:29N 47°39' W 122°23'0 0.1
2017-Oct-19 14:59N 47°39' W 122°23'0 0.1
2017-Oct-19 14:29N 47°39' W 122°23'0 0.0
2017-Oct-19 13:59N 47°39' W 122°23'0 0.1
2017-Oct-19 13:29N 47°39' W 122°23'0 0.0
2017-Oct-19 12:59N 47°39' W 122°23'0 0.1
2017-Oct-19 12:29N 47°39' W 122°23'0 0.0
2017-Oct-19 12:00N 47°39' W 122°23'0 0.0
2017-Oct-19 11:29N 47°39' W 122°23'0 0.0
2017-Oct-19 10:59N 47°39' W 122°23'0 0.0
2017-Oct-19 10:29N 47°39' W 122°23'0 0.1
2017-Oct-19 09:59N 47°39' W 122°23'0 0.0
2017-Oct-19 09:29N 47°39' W 122°23'0 0.1
2017-Oct-19 08:59N 47°39' W 122°23'0 0.1
2017-Oct-19 08:29N 47°39' W 122°23'0 0.0
2017-Oct-19 07:59N 47°39' W 122°23'0 0.1
2017-Oct-19 07:29N 47°39' W 122°23'0 0.0
2017-Oct-19 06:59N 47°39' W 122°23'0 0.0
2017-Oct-19 06:29N 47°39' W 122°23'0 0.1
2017-Oct-19 05:59N 47°39' W 122°23'0 0.1
2017-Oct-19 05:29N 47°39' W 122°23'0 0.0
2017-Oct-19 04:59N 47°39' W 122°23'1 2.0
2017-Oct-19 04:30N 47°40' W 122°24'0 0.8
2017-Oct-19 04:00N 47°40' W 122°24'0 0.9
2017-Oct-19 03:30N 47°41' W 122°25'0 0.1
2017-Oct-19 02:58N 47°41' W 122°25'1 2.8
2017-Oct-19 02:30N 47°40' W 122°26'4 8.1
2017-Oct-19 02:00N 47°36' W 122°26'4 8.0
2017-Oct-19 01:30N 47°32' W 122°27'8 0.3
2017-Oct-18 00:41N 47°39' W 122°23'1 4.0
2017-Oct-18 00:28N 47°40' W 122°24'1 1.7
2017-Oct-17 23:58N 47°39' W 122°23'0 0.0
2017-Oct-17 23:28N 47°39' W 122°23'0 0.0
2017-Oct-17 22:58N 47°39' W 122°23'0 0.0
2017-Oct-17 22:28N 47°39' W 122°23'0 0.0
2017-Oct-17 21:58N 47°39' W 122°23'0 0.0
2017-Oct-17 21:29N 47°39' W 122°23'0 0.1
2017-Oct-17 20:58N 47°39' W 122°23'0 0.1
2017-Oct-17 20:28N 47°39' W 122°23'0 0.0
2017-Oct-17 20:00N 47°39' W 122°23'0 0.0
2017-Oct-17 19:28N 47°39' W 122°23'0 0.0
2017-Oct-17 18:58N 47°39' W 122°23'0 0.1
2017-Oct-17 18:28N 47°39' W 122°23'0 0.1
2017-Oct-17 18:00N 47°39' W 122°23'0 0.0
2017-Oct-17 17:28N 47°39' W 122°23'0 0.0
2017-Oct-17 16:58N 47°39' W 122°23'0 0.0
2017-Oct-17 16:29N 47°39' W 122°23'0 0.0
2017-Oct-17 15:58N 47°39' W 122°23'0 0.0
2017-Oct-17 15:28N 47°39' W 122°23'0 0.1
2017-Oct-17 14:58N 47°39' W 122°23'0 0.1
2017-Oct-17 14:29N 47°39' W 122°23'0 0.0
2017-Oct-17 13:58N 47°39' W 122°23'0 0.0
2017-Oct-17 13:28N 47°39' W 122°23'0 0.0
2017-Oct-17 12:59N 47°39' W 122°23'0 0.0
2017-Oct-17 12:28N 47°39' W 122°23'0 0.0
2017-Oct-17 11:58N 47°39' W 122°23'0 0.0
2017-Oct-17 11:28N 47°39' W 122°23'0 0.0
2017-Oct-17 10:58N 47°39' W 122°23'0 0.0
2017-Oct-17 10:28N 47°39' W 122°23'0 0.1
2017-Oct-17 09:58N 47°39' W 122°23'0 0.0
2017-Oct-17 09:28N 47°39' W 122°23'0 0.0
2017-Oct-17 08:58N 47°39' W 122°23'0 0.1
2017-Oct-17 08:28N 47°39' W 122°23'0 0.1
2017-Oct-17 07:58N 47°39' W 122°23'0 0.1
2017-Oct-17 07:28N 47°39' W 122°23'0 0.0
2017-Oct-17 06:58N 47°39' W 122°23'0 0.0
2017-Oct-17 06:28N 47°39' W 122°23'0 0.1
2017-Oct-17 05:59N 47°39' W 122°23'0 0.1
2017-Oct-17 05:28N 47°39' W 122°23'0 0.0
2017-Oct-17 04:58N 47°39' W 122°23'0 0.0
2017-Oct-17 04:28N 47°39' W 122°23'0 0.0
2017-Oct-17 03:58N 47°39' W 122°23'0 0.0
2017-Oct-17 03:16N 47°39' W 122°23'0 0.0
2017-Oct-17 02:58N 47°39' W 122°23'0 0.0
2017-Oct-17 02:28N 47°39' W 122°23'0 0.0
2017-Oct-17 01:58N 47°39' W 122°23'0 0.0
2017-Oct-17 01:29N 47°39' W 122°23'0 0.0
2017-Oct-17 00:58N 47°39' W 122°23'0 0.0
2017-Oct-17 00:28N 47°39' W 122°23'0 0.0
2017-Oct-16 23:58N 47°39' W 122°23'0 0.0
2017-Oct-16 23:30N 47°39' W 122°23'0 0.1
2017-Oct-16 22:58N 47°39' W 122°23'0 0.1
2017-Oct-16 22:28N 47°39' W 122°23'0 0.0
2017-Oct-16 21:59N 47°39' W 122°23'0 0.0
2017-Oct-16 21:28N 47°39' W 122°23'0 0.0
2017-Oct-16 21:00N 47°39' W 122°23'0 0.0
2017-Oct-16 20:29N 47°39' W 122°23'0 0.0
2017-Oct-16 19:58N 47°39' W 122°23'0 0.0
2017-Oct-16 19:28N 47°39' W 122°23'0 0.0
2017-Oct-16 18:58N 47°39' W 122°23'0 0.1
2017-Oct-16 18:29N 47°39' W 122°23'0 0.1
2017-Oct-16 17:58N 47°39' W 122°23'0 0.0
2017-Oct-16 17:28N 47°39' W 122°23'0 0.0
2017-Oct-16 16:58N 47°39' W 122°23'0 0.0
2017-Oct-16 16:28N 47°39' W 122°23'0 0.0
2017-Oct-16 15:58N 47°39' W 122°23'0 0.0
2017-Oct-16 15:28N 47°39' W 122°23'0 0.0
2017-Oct-16 14:58N 47°39' W 122°23'0 0.0
2017-Oct-16 14:28N 47°39' W 122°23'0 0.0
2017-Oct-16 13:29N 47°39' W 122°23'0 0.0
2017-Oct-16 12:58N 47°39' W 122°23'0 0.0
2017-Oct-16 12:28N 47°39' W 122°23'0 0.0
2017-Oct-16 11:58N 47°39' W 122°23'0 0.0
2017-Oct-16 11:28N 47°39' W 122°23'0 0.0
2017-Oct-16 10:58N 47°39' W 122°23'0 0.1
2017-Oct-16 10:28N 47°39' W 122°23'0 0.1
2017-Oct-16 09:58N 47°39' W 122°23'0 0.0
2017-Oct-16 09:28N 47°39' W 122°23'0 0.1
2017-Oct-16 08:58N 47°39' W 122°23'0 0.1
2017-Oct-16 08:29N 47°39' W 122°23'0 0.0
2017-Oct-16 07:59N 47°39' W 122°23'0 0.1
2017-Oct-16 07:29N 47°39' W 122°23'0 0.0
2017-Oct-16 06:58N 47°39' W 122°23'0 0.0
2017-Oct-16 06:28N 47°39' W 122°23'0 0.1
2017-Oct-16 05:58N 47°39' W 122°23'0 0.0
2017-Oct-16 05:28N 47°39' W 122°23'0 0.0
2017-Oct-16 04:58N 47°39' W 122°23'0 0.0
2017-Oct-16 04:28N 47°39' W 122°23'0 0.1
2017-Oct-16 03:58N 47°39' W 122°23'0 0.1
2017-Oct-16 03:28N 47°39' W 122°23'0 0.0
2017-Oct-16 02:59N 47°39' W 122°23'0 0.0
2017-Oct-16 02:28N 47°39' W 122°23'0 0.0
2017-Oct-16 01:58N 47°39' W 122°23'0 0.0
2017-Oct-16 01:28N 47°39' W 122°23'0 0.0
2017-Oct-15 23:41N 47°39' W 122°23'0 0.0
2017-Oct-15 23:29N 47°39' W 122°23'0 0.0
2017-Oct-15 22:59N 47°39' W 122°23'0 0.0
2017-Oct-15 22:30N 47°39' W 122°23'0 0.0
2017-Oct-15 21:59N 47°39' W 122°23'0 0.1
2017-Oct-15 21:29N 47°39' W 122°23'0 0.1
2017-Oct-15 20:59N 47°39' W 122°23'0 0.0
2017-Oct-15 20:29N 47°39' W 122°23'0 0.0
2017-Oct-15 19:59N 47°39' W 122°23'0 0.0
2017-Oct-15 19:29N 47°39' W 122°23'0 0.0
2017-Oct-15 18:59N 47°39' W 122°23'0 0.0
2017-Oct-15 18:29N 47°39' W 122°23'0 0.1
2017-Oct-15 17:59N 47°39' W 122°23'0 0.1
2017-Oct-15 17:29N 47°39' W 122°23'0 0.0
2017-Oct-15 16:59N 47°39' W 122°23'0 0.0
2017-Oct-15 16:29N 47°39' W 122°23'0 0.0
2017-Oct-15 15:59N 47°39' W 122°23'0 0.1
2017-Oct-15 15:29N 47°39' W 122°23'0 0.1
2017-Oct-15 14:59N 47°39' W 122°23'0 0.0
2017-Oct-15 13:59N 47°39' W 122°23'0 0.0
2017-Oct-15 13:29N 47°39' W 122°23'0 0.0
2017-Oct-15 12:59N 47°39' W 122°23'0 0.0
2017-Oct-15 12:29N 47°39' W 122°23'0 0.0
2017-Oct-15 11:59N 47°39' W 122°23'0 0.1
2017-Oct-15 11:29N 47°39' W 122°23'0 0.1
2017-Oct-15 10:59N 47°39' W 122°23'0 0.0
2017-Oct-15 10:29N 47°39' W 122°23'0 0.1
2017-Oct-15 09:59N 47°39' W 122°23'0 0.1
2017-Oct-15 09:29N 47°39' W 122°23'0 0.1
2017-Oct-15 08:59N 47°39' W 122°23'0 0.0
2017-Oct-15 08:29N 47°39' W 122°23'0 0.1
2017-Oct-15 07:59N 47°39' W 122°23'0 0.1
2017-Oct-15 07:29N 47°39' W 122°23'0 0.1
2017-Oct-15 06:59N 47°39' W 122°23'0 0.1
2017-Oct-15 06:29N 47°39' W 122°23'0 0.1
2017-Oct-15 05:59N 47°39' W 122°23'0 0.0
2017-Oct-15 05:29N 47°39' W 122°23'0 0.0
2017-Oct-15 04:59N 47°39' W 122°23'0 0.0
2017-Oct-15 04:29N 47°39' W 122°23'0 0.0
2017-Oct-15 03:59N 47°39' W 122°23'0 0.1
2017-Oct-15 03:29N 47°39' W 122°23'0 0.1
2017-Oct-15 02:59N 47°39' W 122°23'0 0.0
2017-Oct-15 02:30N 47°39' W 122°23'0 0.0
2017-Oct-15 02:00N 47°39' W 122°23'0 0.0
2017-Oct-15 01:29N 47°39' W 122°23'0 0.0
2017-Oct-15 00:59N 47°39' W 122°23'0 0.0
2017-Oct-15 00:29N 47°39' W 122°23'0 0.0
2017-Oct-15 00:00N 47°39' W 122°23'0 0.1
2017-Oct-14 23:29N 47°39' W 122°23'0 0.1
2017-Oct-14 22:59N 47°39' W 122°23'0 0.1
2017-Oct-14 22:14N 47°39' W 122°23'0 0.2
2017-Oct-14 21:59N 47°39' W 122°23'0 0.1
2017-Oct-14 21:29N 47°39' W 122°23'0 0.0
2017-Oct-14 20:59N 47°39' W 122°23'0 0.1
2017-Oct-14 20:29N 47°39' W 122°23'0 0.0
2017-Oct-14 19:59N 47°39' W 122°23'0 0.0
2017-Oct-14 19:29N 47°39' W 122°23'0 0.1
2017-Oct-14 18:59N 47°39' W 122°23'0 0.0
2017-Oct-14 18:29N 47°39' W 122°23'0 0.1
2017-Oct-14 17:59N 47°39' W 122°23'0 0.0
2017-Oct-14 17:29N 47°39' W 122°23'0 0.1
2017-Oct-14 16:59N 47°39' W 122°23'0 0.1
2017-Oct-14 16:29N 47°39' W 122°23'0 0.0
2017-Oct-14 15:59N 47°39' W 122°23'0 0.0
2017-Oct-14 15:29N 47°39' W 122°23'0 0.0
2017-Oct-14 14:59N 47°39' W 122°23'0 0.0
2017-Oct-14 14:29N 47°39' W 122°23'0 0.0
2017-Oct-14 13:59N 47°39' W 122°23'0 0.0
2017-Oct-14 13:30N 47°39' W 122°23'0 0.0
2017-Oct-14 12:59N 47°39' W 122°23'0 0.1
2017-Oct-14 12:29N 47°39' W 122°23'0 0.1
2017-Oct-14 11:59N 47°39' W 122°23'0 0.0
2017-Oct-14 11:29N 47°39' W 122°23'0 0.0
2017-Oct-14 10:59N 47°39' W 122°23'0 0.0
2017-Oct-14 10:29N 47°39' W 122°23'0 0.0
2017-Oct-14 09:59N 47°39' W 122°23'0 0.1
2017-Oct-14 09:29N 47°39' W 122°23'0 0.0
2017-Oct-14 09:00N 47°39' W 122°23'0 0.0
2017-Oct-14 08:29N 47°39' W 122°23'0 0.1
2017-Oct-14 08:00N 47°39' W 122°23'0 0.0
2017-Oct-14 07:29N 47°39' W 122°23'0 0.0
2017-Oct-14 06:59N 47°39' W 122°23'0 0.1
2017-Oct-14 06:29N 47°39' W 122°23'0 0.0
2017-Oct-14 06:00N 47°39' W 122°23'0 0.1
2017-Oct-14 05:29N 47°39' W 122°23'0 0.0
2017-Oct-14 04:59N 47°39' W 122°23'0 0.0
2017-Oct-14 04:29N 47°39' W 122°23'0 0.0
2017-Oct-14 03:59N 47°39' W 122°23'0 0.1
2017-Oct-14 03:29N 47°39' W 122°23'0 0.1
2017-Oct-14 02:59N 47°39' W 122°23'0 0.0
2017-Oct-14 02:29N 47°39' W 122°23'0 0.0
2017-Oct-14 01:59N 47°39' W 122°23'0 0.0
2017-Oct-14 01:14N 47°39' W 122°23'0 0.0
2017-Oct-13 23:20N 47°39' W 122°23'0 0.0
2017-Oct-13 22:59N 47°39' W 122°23'0 0.0
2017-Oct-13 22:29N 47°39' W 122°23'0 0.0
2017-Oct-13 21:59N 47°39' W 122°23'0 0.0
2017-Oct-13 21:29N 47°39' W 122°23'0 0.0
2017-Oct-13 20:58N 47°39' W 122°23'0 0.0
2017-Oct-13 20:02N 47°39' W 122°23'0 0.0
2017-Oct-13 19:59N 47°39' W 122°23'0 0.0
2017-Oct-13 19:29N 47°39' W 122°23'0 0.1
2017-Oct-13 19:00N 47°39' W 122°23'0 0.0
2017-Oct-13 18:29N 47°39' W 122°23'0 0.0
2017-Oct-13 17:59N 47°39' W 122°23'0 0.1
2017-Oct-13 17:30N 47°39' W 122°23'0 0.0
2017-Oct-13 17:00N 47°39' W 122°23'0 0.1
2017-Oct-13 16:30N 47°39' W 122°23'0 0.1
2017-Oct-13 15:57N 47°39' W 122°23'0 0.0
2017-Oct-13 15:29N 47°39' W 122°23'0 0.0
2017-Oct-13 15:00N 47°39' W 122°23'0 0.0
2017-Oct-13 14:30N 47°39' W 122°23'0 0.0
2017-Oct-13 14:00N 47°39' W 122°23'0 0.0
2017-Oct-13 13:30N 47°39' W 122°23'0 0.0
2017-Oct-13 12:59N 47°39' W 122°23'0 0.0
2017-Oct-13 12:29N 47°39' W 122°23'0 0.0
2017-Oct-13 12:00N 47°39' W 122°23'0 0.0
2017-Oct-13 11:29N 47°39' W 122°23'0 0.0
2017-Oct-13 10:59N 47°39' W 122°23'0 0.1
2017-Oct-13 10:29N 47°39' W 122°23'0 0.0
2017-Oct-13 09:59N 47°39' W 122°23'0 0.1
2017-Oct-13 09:29N 47°39' W 122°23'0 0.0
2017-Oct-13 09:00N 47°39' W 122°23'0 0.1
2017-Oct-13 08:29N 47°39' W 122°23'0 0.1
2017-Oct-13 08:00N 47°39' W 122°23'0 0.1
2017-Oct-13 07:30N 47°39' W 122°23'0 0.1
2017-Oct-13 06:59N 47°39' W 122°23'0 0.1
2017-Oct-13 06:29N 47°39' W 122°23'0 0.1
2017-Oct-13 06:00N 47°39' W 122°23'0 0.1
2017-Oct-13 05:29N 47°39' W 122°23'0 0.0
2017-Oct-13 04:59N 47°39' W 122°23'0 0.1
2017-Oct-13 04:29N 47°39' W 122°23'0 0.1
2017-Oct-13 03:59N 47°39' W 122°23'0 0.1
2017-Oct-13 03:30N 47°39' W 122°23'0 0.0
2017-Oct-13 02:59N 47°39' W 122°23'0 0.1
2017-Oct-13 02:30N 47°39' W 122°23'0 0.1
2017-Oct-13 01:59N 47°39' W 122°23'0 0.0
2017-Oct-13 01:29N 47°39' W 122°23'0 0.0
2017-Oct-13 01:00N 47°39' W 122°23'0 0.0
2017-Oct-13 00:29N 47°39' W 122°23'0 0.1
2017-Oct-12 23:59N 47°39' W 122°23'0 0.1
2017-Oct-12 23:29N 47°39' W 122°23'0 0.0
2017-Oct-12 22:59N 47°39' W 122°23'0 0.0
2017-Oct-12 22:30N 47°39' W 122°23'0 0.0
2017-Oct-12 22:00N 47°39' W 122°23'0 0.0
2017-Oct-12 21:30N 47°39' W 122°23'0 0.0
2017-Oct-12 21:00N 47°39' W 122°23'0 0.0
2017-Oct-12 20:29N 47°39' W 122°23'0 0.0
2017-Oct-12 19:59N 47°39' W 122°23'0 0.0
2017-Oct-12 19:30N 47°39' W 122°23'0 0.1
2017-Oct-12 18:59N 47°39' W 122°23'0 0.0
2017-Oct-12 18:29N 47°39' W 122°23'0 0.1
2017-Oct-12 17:59N 47°39' W 122°23'0 0.0
2017-Oct-12 17:29N 47°39' W 122°23'0 0.0
2017-Oct-12 16:59N 47°39' W 122°23'0 0.0
2017-Oct-12 16:29N 47°39' W 122°23'0 0.0
2017-Oct-12 15:59N 47°39' W 122°23'0 0.1
2017-Oct-12 15:29N 47°39' W 122°23'0 0.1
2017-Oct-12 15:00N 47°39' W 122°23'0 0.0
2017-Oct-12 14:30N 47°39' W 122°23'0 0.1
2017-Oct-12 13:59N 47°39' W 122°23'0 0.1
2017-Oct-12 13:29N 47°39' W 122°23'0 0.0
2017-Oct-12 12:59N 47°39' W 122°23'0 0.0
2017-Oct-12 12:30N 47°39' W 122°23'0 0.1
2017-Oct-12 11:59N 47°39' W 122°23'0 0.0
2017-Oct-12 11:29N 47°39' W 122°23'0 0.1
2017-Oct-12 11:00N 47°39' W 122°23'0 0.0
2017-Oct-12 10:29N 47°39' W 122°23'0 0.1
2017-Oct-12 10:00N 47°39' W 122°23'0 0.1
2017-Oct-12 09:29N 47°39' W 122°23'0 0.1
2017-Oct-12 09:00N 47°39' W 122°23'0 0.9
2017-Oct-12 08:30N 47°40' W 122°23'1 1.7
2017-Oct-12 08:01N 47°40' W 122°24'3 6.1
2017-Oct-12 07:31N 47°43' W 122°25'4 7.5
2017-Oct-12 07:00N 47°47' W 122°25'4 7.5
2017-Oct-12 06:31N 47°50' W 122°23'4 8.3
2017-Oct-12 06:00N 47°54' W 122°21'8 0.2
2017-Oct-10 02:09N 47°57' W 122°32'1 7.5
2017-Oct-10 01:59N 47°57' W 122°31'4 8.0
2017-Oct-10 01:30N 47°54' W 122°27'2 4.5
2017-Oct-10 01:00N 47°54' W 122°23'  
Track history (hours):
 
Tides and Currents Weather Stations Pressure Air Temp Water Temp Dewpoint Dewpoint Depression Visibility Wind Speed Wind Dir Waves Ship Positions

F/V Chelsea Dawn

Owner: YOUNG, MARK N, SITKA, AK. More information available from US FCC via Universal Licensing System and Coast Guard Vessel Documentation Center.

Last reported at 2017-Oct-20 00:59 UTC. Time now 2017-Oct-20 01:29 UTC.
Position N 47°39' W 122°23'.

Length 15 m.

Type: Fishing. MMSI: 367076240.

Date/timePositionNaut miles runAvg speedWind from/ knotsBaromVisibWave heightAir tempDewpointWater temp
2017-Oct-20 00:59N 47°39' W 122°23'0 0.0
2017-Oct-20 00:29N 47°39' W 122°23'0 0.0
2017-Oct-19 23:59N 47°39' W 122°23'0 0.0
2017-Oct-19 23:29N 47°39' W 122°23'0 0.0
2017-Oct-19 22:59N 47°39' W 122°23'0 0.0
2017-Oct-19 22:29N 47°39' W 122°23'0 0.0
2017-Oct-19 21:59N 47°39' W 122°23'0 0.0
2017-Oct-19 21:29N 47°39' W 122°23'0 0.1
2017-Oct-19 20:59N 47°39' W 122°23'0 0.1
2017-Oct-19 20:29N 47°39' W 122°23'0 0.0
2017-Oct-19 19:59N 47°39' W 122°23'0 0.0
2017-Oct-19 19:29N 47°39' W 122°23'0 0.1
2017-Oct-19 18:59N 47°39' W 122°23'0 0.1
2017-Oct-19 18:30N 47°39' W 122°23'0 0.1
2017-Oct-19 17:59N 47°39' W 122°23'0 0.1
2017-Oct-19 17:29N 47°39' W 122°23'0 0.0
2017-Oct-19 16:59N 47°39' W 122°23'0 0.0
2017-Oct-19 16:29N 47°39' W 122°23'0 0.0
2017-Oct-19 15:59N 47°39' W 122°23'0 0.0
2017-Oct-19 15:29N 47°39' W 122°23'0 0.1
2017-Oct-19 14:59N 47°39' W 122°23'0 0.1
2017-Oct-19 14:29N 47°39' W 122°23'0 0.0
2017-Oct-19 13:59N 47°39' W 122°23'0 0.1
2017-Oct-19 13:29N 47°39' W 122°23'0 0.0
2017-Oct-19 12:59N 47°39' W 122°23'0 0.1
2017-Oct-19 12:29N 47°39' W 122°23'0 0.0
2017-Oct-19 12:00N 47°39' W 122°23'0 0.0
2017-Oct-19 11:29N 47°39' W 122°23'0 0.0
2017-Oct-19 10:59N 47°39' W 122°23'0 0.0
2017-Oct-19 10:29N 47°39' W 122°23'0 0.1
2017-Oct-19 09:59N 47°39' W 122°23'0 0.0
2017-Oct-19 09:29N 47°39' W 122°23'0 0.1
2017-Oct-19 08:59N 47°39' W 122°23'0 0.1
2017-Oct-19 08:29N 47°39' W 122°23'0 0.0
2017-Oct-19 07:59N 47°39' W 122°23'0 0.1
2017-Oct-19 07:29N 47°39' W 122°23'0 0.0
2017-Oct-19 06:59N 47°39' W 122°23'0 0.0
2017-Oct-19 06:29N 47°39' W 122°23'0 0.1
2017-Oct-19 05:59N 47°39' W 122°23'0 0.1
2017-Oct-19 05:29N 47°39' W 122°23'0 0.0
2017-Oct-19 04:59N 47°39' W 122°23'1 2.0
2017-Oct-19 04:30N 47°40' W 122°24'0 0.8
2017-Oct-19 04:00N 47°40' W 122°24'0 0.9
2017-Oct-19 03:30N 47°41' W 122°25'0 0.1
2017-Oct-19 02:58N 47°41' W 122°25'1 2.8
2017-Oct-19 02:30N 47°40' W 122°26'4 8.1
2017-Oct-19 02:00N 47°36' W 122°26'4 8.0
2017-Oct-19 01:30N 47°32' W 122°27'8 0.3
2017-Oct-18 00:41N 47°39' W 122°23'1 4.0
2017-Oct-18 00:28N 47°40' W 122°24'1 1.7
2017-Oct-17 23:58N 47°39' W 122°23'0 0.0
2017-Oct-17 23:28N 47°39' W 122°23'0 0.0
2017-Oct-17 22:58N 47°39' W 122°23'0 0.0
2017-Oct-17 22:28N 47°39' W 122°23'0 0.0
2017-Oct-17 21:58N 47°39' W 122°23'0 0.0
2017-Oct-17 21:29N 47°39' W 122°23'0 0.1
2017-Oct-17 20:58N 47°39' W 122°23'0 0.1
2017-Oct-17 20:28N 47°39' W 122°23'0 0.0
2017-Oct-17 20:00N 47°39' W 122°23'0 0.0
2017-Oct-17 19:28N 47°39' W 122°23'0 0.0
2017-Oct-17 18:58N 47°39' W 122°23'0 0.1
2017-Oct-17 18:28N 47°39' W 122°23'0 0.1
2017-Oct-17 18:00N 47°39' W 122°23'0 0.0
2017-Oct-17 17:28N 47°39' W 122°23'0 0.0
2017-Oct-17 16:58N 47°39' W 122°23'0 0.0
2017-Oct-17 16:29N 47°39' W 122°23'0 0.0
2017-Oct-17 15:58N 47°39' W 122°23'0 0.0
2017-Oct-17 15:28N 47°39' W 122°23'0 0.1
2017-Oct-17 14:58N 47°39' W 122°23'0 0.1
2017-Oct-17 14:29N 47°39' W 122°23'0 0.0
2017-Oct-17 13:58N 47°39' W 122°23'0 0.0
2017-Oct-17 13:28N 47°39' W 122°23'0 0.0
2017-Oct-17 12:59N 47°39' W 122°23'0 0.0
2017-Oct-17 12:28N 47°39' W 122°23'0 0.0
2017-Oct-17 11:58N 47°39' W 122°23'0 0.0
2017-Oct-17 11:28N 47°39' W 122°23'0 0.0
2017-Oct-17 10:58N 47°39' W 122°23'0 0.0
2017-Oct-17 10:28N 47°39' W 122°23'0 0.1
2017-Oct-17 09:58N 47°39' W 122°23'0 0.0
2017-Oct-17 09:28N 47°39' W 122°23'0 0.0
2017-Oct-17 08:58N 47°39' W 122°23'0 0.1
2017-Oct-17 08:28N 47°39' W 122°23'0 0.1
2017-Oct-17 07:58N 47°39' W 122°23'0 0.1
2017-Oct-17 07:28N 47°39' W 122°23'0 0.0
2017-Oct-17 06:58N 47°39' W 122°23'0 0.0
2017-Oct-17 06:28N 47°39' W 122°23'0 0.1
2017-Oct-17 05:59N 47°39' W 122°23'0 0.1
2017-Oct-17 05:28N 47°39' W 122°23'0 0.0
2017-Oct-17 04:58N 47°39' W 122°23'0 0.0
2017-Oct-17 04:28N 47°39' W 122°23'0 0.0
2017-Oct-17 03:58N 47°39' W 122°23'0 0.0
2017-Oct-17 03:16N 47°39' W 122°23'0 0.0
2017-Oct-17 02:58N 47°39' W 122°23'0 0.0
2017-Oct-17 02:28N 47°39' W 122°23'0 0.0
2017-Oct-17 01:58N 47°39' W 122°23'0 0.0
2017-Oct-17 01:29N 47°39' W 122°23'0 0.0
2017-Oct-17 00:58N 47°39' W 122°23'0 0.0
2017-Oct-17 00:28N 47°39' W 122°23'0 0.0
2017-Oct-16 23:58N 47°39' W 122°23'0 0.0
2017-Oct-16 23:30N 47°39' W 122°23'0 0.1
2017-Oct-16 22:58N 47°39' W 122°23'0 0.1
2017-Oct-16 22:28N 47°39' W 122°23'0 0.0
2017-Oct-16 21:59N 47°39' W 122°23'0 0.0
2017-Oct-16 21:28N 47°39' W 122°23'0 0.0
2017-Oct-16 21:00N 47°39' W 122°23'0 0.0
2017-Oct-16 20:29N 47°39' W 122°23'0 0.0
2017-Oct-16 19:58N 47°39' W 122°23'0 0.0
2017-Oct-16 19:28N 47°39' W 122°23'0 0.0
2017-Oct-16 18:58N 47°39' W 122°23'0 0.1
2017-Oct-16 18:29N 47°39' W 122°23'0 0.1
2017-Oct-16 17:58N 47°39' W 122°23'0 0.0
2017-Oct-16 17:28N 47°39' W 122°23'0 0.0
2017-Oct-16 16:58N 47°39' W 122°23'0 0.0
2017-Oct-16 16:28N 47°39' W 122°23'0 0.0
2017-Oct-16 15:58N 47°39' W 122°23'0 0.0
2017-Oct-16 15:28N 47°39' W 122°23'0 0.0
2017-Oct-16 14:58N 47°39' W 122°23'0 0.0
2017-Oct-16 14:28N 47°39' W 122°23'0 0.0
2017-Oct-16 13:29N 47°39' W 122°23'0 0.0
2017-Oct-16 12:58N 47°39' W 122°23'0 0.0
2017-Oct-16 12:28N 47°39' W 122°23'0 0.0
2017-Oct-16 11:58N 47°39' W 122°23'0 0.0
2017-Oct-16 11:28N 47°39' W 122°23'0 0.0
2017-Oct-16 10:58N 47°39' W 122°23'0 0.1
2017-Oct-16 10:28N 47°39' W 122°23'0 0.1
2017-Oct-16 09:58N 47°39' W 122°23'0 0.0
2017-Oct-16 09:28N 47°39' W 122°23'0 0.1
2017-Oct-16 08:58N 47°39' W 122°23'0 0.1
2017-Oct-16 08:29N 47°39' W 122°23'0 0.0
2017-Oct-16 07:59N 47°39' W 122°23'0 0.1
2017-Oct-16 07:29N 47°39' W 122°23'0 0.0
2017-Oct-16 06:58N 47°39' W 122°23'0 0.0
2017-Oct-16 06:28N 47°39' W 122°23'0 0.1
2017-Oct-16 05:58N 47°39' W 122°23'0 0.0
2017-Oct-16 05:28N 47°39' W 122°23'0 0.0
2017-Oct-16 04:58N 47°39' W 122°23'0 0.0
2017-Oct-16 04:28N 47°39' W 122°23'0 0.1
2017-Oct-16 03:58N 47°39' W 122°23'0 0.1
2017-Oct-16 03:28N 47°39' W 122°23'0 0.0
2017-Oct-16 02:59N 47°39' W 122°23'0 0.0
2017-Oct-16 02:28N 47°39' W 122°23'0 0.0
2017-Oct-16 01:58N 47°39' W 122°23'0 0.0
2017-Oct-16 01:28N 47°39' W 122°23'0 0.0
2017-Oct-15 23:41N 47°39' W 122°23'0 0.0
2017-Oct-15 23:29N 47°39' W 122°23'0 0.0
2017-Oct-15 22:59N 47°39' W 122°23'0 0.0
2017-Oct-15 22:30N 47°39' W 122°23'0 0.0
2017-Oct-15 21:59N 47°39' W 122°23'0 0.1
2017-Oct-15 21:29N 47°39' W 122°23'0 0.1
2017-Oct-15 20:59N 47°39' W 122°23'0 0.0
2017-Oct-15 20:29N 47°39' W 122°23'0 0.0
2017-Oct-15 19:59N 47°39' W 122°23'0 0.0
2017-Oct-15 19:29N 47°39' W 122°23'0 0.0
2017-Oct-15 18:59N 47°39' W 122°23'0 0.0
2017-Oct-15 18:29N 47°39' W 122°23'0 0.1
2017-Oct-15 17:59N 47°39' W 122°23'0 0.1
2017-Oct-15 17:29N 47°39' W 122°23'0 0.0
2017-Oct-15 16:59N 47°39' W 122°23'0 0.0
2017-Oct-15 16:29N 47°39' W 122°23'0 0.0
2017-Oct-15 15:59N 47°39' W 122°23'0 0.1
2017-Oct-15 15:29N 47°39' W 122°23'0 0.1
2017-Oct-15 14:59N 47°39' W 122°23'0 0.0
2017-Oct-15 13:59N 47°39' W 122°23'0 0.0
2017-Oct-15 13:29N 47°39' W 122°23'0 0.0
2017-Oct-15 12:59N 47°39' W 122°23'0 0.0
2017-Oct-15 12:29N 47°39' W 122°23'0 0.0
2017-Oct-15 11:59N 47°39' W 122°23'0 0.1
2017-Oct-15 11:29N 47°39' W 122°23'0 0.1
2017-Oct-15 10:59N 47°39' W 122°23'0 0.0
2017-Oct-15 10:29N 47°39' W 122°23'0 0.1
2017-Oct-15 09:59N 47°39' W 122°23'0 0.1
2017-Oct-15 09:29N 47°39' W 122°23'0 0.1
2017-Oct-15 08:59N 47°39' W 122°23'0 0.0
2017-Oct-15 08:29N 47°39' W 122°23'0 0.1
2017-Oct-15 07:59N 47°39' W 122°23'0 0.1
2017-Oct-15 07:29N 47°39' W 122°23'0 0.1
2017-Oct-15 06:59N 47°39' W 122°23'0 0.1
2017-Oct-15 06:29N 47°39' W 122°23'0 0.1
2017-Oct-15 05:59N 47°39' W 122°23'0 0.0
2017-Oct-15 05:29N 47°39' W 122°23'0 0.0
2017-Oct-15 04:59N 47°39' W 122°23'0 0.0
2017-Oct-15 04:29N 47°39' W 122°23'0 0.0
2017-Oct-15 03:59N 47°39' W 122°23'0 0.1
2017-Oct-15 03:29N 47°39' W 122°23'0 0.1
2017-Oct-15 02:59N 47°39' W 122°23'0 0.0
2017-Oct-15 02:30N 47°39' W 122°23'0 0.0
2017-Oct-15 02:00N 47°39' W 122°23'0 0.0
2017-Oct-15 01:29N 47°39' W 122°23'0 0.0
2017-Oct-15 00:59N 47°39' W 122°23'0 0.0
2017-Oct-15 00:29N 47°39' W 122°23'0 0.0
2017-Oct-15 00:00N 47°39' W 122°23'0 0.1
2017-Oct-14 23:29N 47°39' W 122°23'0 0.1
2017-Oct-14 22:59N 47°39' W 122°23'0 0.1
2017-Oct-14 22:14N 47°39' W 122°23'0 0.2
2017-Oct-14 21:59N 47°39' W 122°23'0 0.1
2017-Oct-14 21:29N 47°39' W 122°23'0 0.0
2017-Oct-14 20:59N 47°39' W 122°23'0 0.1
2017-Oct-14 20:29N 47°39' W 122°23'0 0.0
2017-Oct-14 19:59N 47°39' W 122°23'0 0.0
2017-Oct-14 19:29N 47°39' W 122°23'0 0.1
2017-Oct-14 18:59N 47°39' W 122°23'0 0.0
2017-Oct-14 18:29N 47°39' W 122°23'0 0.1
2017-Oct-14 17:59N 47°39' W 122°23'0 0.0
2017-Oct-14 17:29N 47°39' W 122°23'0 0.1
2017-Oct-14 16:59N 47°39' W 122°23'0 0.1
2017-Oct-14 16:29N 47°39' W 122°23'0 0.0
2017-Oct-14 15:59N 47°39' W 122°23'0 0.0
2017-Oct-14 15:29N 47°39' W 122°23'0 0.0
2017-Oct-14 14:59N 47°39' W 122°23'0 0.0
2017-Oct-14 14:29N 47°39' W 122°23'0 0.0
2017-Oct-14 13:59N 47°39' W 122°23'0 0.0
2017-Oct-14 13:30N 47°39' W 122°23'0 0.0
2017-Oct-14 12:59N 47°39' W 122°23'0 0.1
2017-Oct-14 12:29N 47°39' W 122°23'0 0.1
2017-Oct-14 11:59N 47°39' W 122°23'0 0.0
2017-Oct-14 11:29N 47°39' W 122°23'0 0.0
2017-Oct-14 10:59N 47°39' W 122°23'0 0.0
2017-Oct-14 10:29N 47°39' W 122°23'0 0.0
2017-Oct-14 09:59N 47°39' W 122°23'0 0.1
2017-Oct-14 09:29N 47°39' W 122°23'0 0.0
2017-Oct-14 09:00N 47°39' W 122°23'0 0.0
2017-Oct-14 08:29N 47°39' W 122°23'0 0.1
2017-Oct-14 08:00N 47°39' W 122°23'0 0.0
2017-Oct-14 07:29N 47°39' W 122°23'0 0.0
2017-Oct-14 06:59N 47°39' W 122°23'0 0.1
2017-Oct-14 06:29N 47°39' W 122°23'0 0.0
2017-Oct-14 06:00N 47°39' W 122°23'0 0.1
2017-Oct-14 05:29N 47°39' W 122°23'0 0.0
2017-Oct-14 04:59N 47°39' W 122°23'0 0.0
2017-Oct-14 04:29N 47°39' W 122°23'0 0.0
2017-Oct-14 03:59N 47°39' W 122°23'0 0.1
2017-Oct-14 03:29N 47°39' W 122°23'0 0.1
2017-Oct-14 02:59N 47°39' W 122°23'0 0.0
2017-Oct-14 02:29N 47°39' W 122°23'0 0.0
2017-Oct-14 01:59N 47°39' W 122°23'0 0.0
2017-Oct-14 01:14N 47°39' W 122°23'0 0.0
2017-Oct-13 23:20N 47°39' W 122°23'0 0.0
2017-Oct-13 22:59N 47°39' W 122°23'0 0.0
2017-Oct-13 22:29N 47°39' W 122°23'0 0.0
2017-Oct-13 21:59N 47°39' W 122°23'0 0.0
2017-Oct-13 21:29N 47°39' W 122°23'0 0.0
2017-Oct-13 20:58N 47°39' W 122°23'0 0.0
2017-Oct-13 20:02N 47°39' W 122°23'0 0.0
2017-Oct-13 19:59N 47°39' W 122°23'0 0.0
2017-Oct-13 19:29N 47°39' W 122°23'0 0.1
2017-Oct-13 19:00N 47°39' W 122°23'0 0.0
2017-Oct-13 18:29N 47°39' W 122°23'0 0.0
2017-Oct-13 17:59N 47°39' W 122°23'0 0.1
2017-Oct-13 17:30N 47°39' W 122°23'0 0.0
2017-Oct-13 17:00N 47°39' W 122°23'0 0.1
2017-Oct-13 16:30N 47°39' W 122°23'0 0.1
2017-Oct-13 15:57N 47°39' W 122°23'0 0.0
2017-Oct-13 15:29N 47°39' W 122°23'0 0.0
2017-Oct-13 15:00N 47°39' W 122°23'0 0.0
2017-Oct-13 14:30N 47°39' W 122°23'0 0.0
2017-Oct-13 14:00N 47°39' W 122°23'0 0.0
2017-Oct-13 13:30N 47°39' W 122°23'0 0.0
2017-Oct-13 12:59N 47°39' W 122°23'0 0.0
2017-Oct-13 12:29N 47°39' W 122°23'0 0.0
2017-Oct-13 12:00N 47°39' W 122°23'0 0.0
2017-Oct-13 11:29N 47°39' W 122°23'0 0.0
2017-Oct-13 10:59N 47°39' W 122°23'0 0.1
2017-Oct-13 10:29N 47°39' W 122°23'0 0.0
2017-Oct-13 09:59N 47°39' W 122°23'0 0.1
2017-Oct-13 09:29N 47°39' W 122°23'0 0.0
2017-Oct-13 09:00N 47°39' W 122°23'0 0.1
2017-Oct-13 08:29N 47°39' W 122°23'0 0.1
2017-Oct-13 08:00N 47°39' W 122°23'0 0.1
2017-Oct-13 07:30N 47°39' W 122°23'0 0.1
2017-Oct-13 06:59N 47°39' W 122°23'0 0.1
2017-Oct-13 06:29N 47°39' W 122°23'0 0.1
2017-Oct-13 06:00N 47°39' W 122°23'0 0.1
2017-Oct-13 05:29N 47°39' W 122°23'0 0.0
2017-Oct-13 04:59N 47°39' W 122°23'0 0.1
2017-Oct-13 04:29N 47°39' W 122°23'0 0.1
2017-Oct-13 03:59N 47°39' W 122°23'0 0.1
2017-Oct-13 03:30N 47°39' W 122°23'0 0.0
2017-Oct-13 02:59N 47°39' W 122°23'0 0.1
2017-Oct-13 02:30N 47°39' W 122°23'0 0.1
2017-Oct-13 01:59N 47°39' W 122°23'0 0.0
2017-Oct-13 01:29N 47°39' W 122°23'0 0.0
2017-Oct-13 01:00N 47°39' W 122°23'0 0.0
2017-Oct-13 00:29N 47°39' W 122°23'0 0.1
2017-Oct-12 23:59N 47°39' W 122°23'0 0.1
2017-Oct-12 23:29N 47°39' W 122°23'0 0.0
2017-Oct-12 22:59N 47°39' W 122°23'0 0.0
2017-Oct-12 22:30N 47°39' W 122°23'0 0.0
2017-Oct-12 22:00N 47°39' W 122°23'0 0.0
2017-Oct-12 21:30N 47°39' W 122°23'0 0.0
2017-Oct-12 21:00N 47°39' W 122°23'0 0.0
2017-Oct-12 20:29N 47°39' W 122°23'0 0.0
2017-Oct-12 19:59N 47°39' W 122°23'0 0.0
2017-Oct-12 19:30N 47°39' W 122°23'0 0.1
2017-Oct-12 18:59N 47°39' W 122°23'0 0.0
2017-Oct-12 18:29N 47°39' W 122°23'0 0.1
2017-Oct-12 17:59N 47°39' W 122°23'0 0.0
2017-Oct-12 17:29N 47°39' W 122°23'0 0.0
2017-Oct-12 16:59N 47°39' W 122°23'0 0.0
2017-Oct-12 16:29N 47°39' W 122°23'0 0.0
2017-Oct-12 15:59N 47°39' W 122°23'0 0.1
2017-Oct-12 15:29N 47°39' W 122°23'0 0.1
2017-Oct-12 15:00N 47°39' W 122°23'0 0.0
2017-Oct-12 14:30N 47°39' W 122°23'0 0.1
2017-Oct-12 13:59N 47°39' W 122°23'0 0.1
2017-Oct-12 13:29N 47°39' W 122°23'0 0.0
2017-Oct-12 12:59N 47°39' W 122°23'0 0.0
2017-Oct-12 12:30N 47°39' W 122°23'0 0.1
2017-Oct-12 11:59N 47°39' W 122°23'0 0.0
2017-Oct-12 11:29N 47°39' W 122°23'0 0.1
2017-Oct-12 11:00N 47°39' W 122°23'0 0.0
2017-Oct-12 10:29N 47°39' W 122°23'0 0.1
2017-Oct-12 10:00N 47°39' W 122°23'0 0.1
2017-Oct-12 09:29N 47°39' W 122°23'0 0.1
2017-Oct-12 09:00N 47°39' W 122°23'0 0.9
2017-Oct-12 08:30N 47°40' W 122°23'1 1.7
2017-Oct-12 08:01N 47°40' W 122°24'3 6.1
2017-Oct-12 07:31N 47°43' W 122°25'4 7.5
2017-Oct-12 07:00N 47°47' W 122°25'4 7.5
2017-Oct-12 06:31N 47°50' W 122°23'4 8.3
2017-Oct-12 06:00N 47°54' W 122°21'8 0.2
2017-Oct-10 02:09N 47°57' W 122°32'1 7.5
2017-Oct-10 01:59N 47°57' W 122°31'4 8.0
2017-Oct-10 01:30N 47°54' W 122°27'2 4.5
2017-Oct-10 01:00N 47°54' W 122°23'  

Dump ship's entire track history